createdAt,value
2017-09-22T00:00:46.247Z,12.75
2017-09-22T00:03:13.739Z,12.71
2017-09-22T00:05:41.490Z,12.69
2017-09-22T00:08:09.033Z,12.67
2017-09-22T00:10:36.494Z,12.65
2017-09-22T00:13:04.020Z,12.64
2017-09-22T00:15:31.484Z,12.64
2017-09-22T00:17:58.965Z,12.60
2017-09-22T00:20:26.428Z,12.57
2017-09-22T00:22:53.880Z,12.58
2017-09-22T00:25:21.359Z,12.55
2017-09-22T00:27:48.832Z,12.56
2017-09-22T00:30:16.310Z,12.53
2017-09-22T00:32:43.766Z,12.52
2017-09-22T00:35:11.222Z,12.52
2017-09-22T00:37:38.710Z,12.54
2017-09-22T00:40:06.172Z,12.54
2017-09-22T00:42:33.657Z,12.51
2017-09-22T00:45:01.125Z,12.51
2017-09-22T00:47:28.583Z,12.53
2017-09-22T00:49:56.066Z,12.50
2017-09-22T00:52:23.541Z,12.46
2017-09-22T00:54:51.016Z,12.45
2017-09-22T00:57:18.484Z,12.45
2017-09-22T00:59:45.963Z,12.42
2017-09-22T01:02:13.437Z,12.42
2017-09-22T01:04:40.898Z,12.43
2017-09-22T01:07:08.363Z,12.43
2017-09-22T01:09:35.826Z,12.47
2017-09-22T01:12:03.662Z,12.44
2017-09-22T01:14:31.113Z,12.43
2017-09-22T01:16:58.570Z,12.46
2017-09-22T01:19:26.077Z,12.45
2017-09-22T01:21:53.540Z,12.43
2017-09-22T01:24:21.355Z,12.41
2017-09-22T01:26:48.949Z,12.41
2017-09-22T01:29:17.247Z,12.41
2017-09-22T01:31:45.059Z,12.40
2017-09-22T01:34:12.523Z,12.42
2017-09-22T01:36:39.997Z,12.43
2017-09-22T01:39:07.454Z,12.40
2017-09-22T01:41:34.941Z,12.38
2017-09-22T01:44:02.402Z,12.37
2017-09-22T01:46:29.880Z,12.36
2017-09-22T01:48:57.345Z,12.31
2017-09-22T01:51:25.121Z,12.31
2017-09-22T01:53:52.579Z,12.27
2017-09-22T01:56:20.036Z,12.23
2017-09-22T01:58:47.510Z,12.20
2017-09-22T02:01:14.977Z,12.20
2017-09-22T02:03:42.456Z,12.19
2017-09-22T02:06:09.922Z,12.19
2017-09-22T02:08:37.722Z,12.21
2017-09-22T02:11:05.186Z,12.23
2017-09-22T02:13:32.640Z,12.24
2017-09-22T02:16:00.116Z,12.25
2017-09-22T02:18:27.580Z,12.27
2017-09-22T02:20:55.313Z,12.28
2017-09-22T02:23:22.763Z,12.30
2017-09-22T02:25:50.228Z,12.31
2017-09-22T02:28:17.717Z,12.33
2017-09-22T02:30:45.185Z,12.32
2017-09-22T02:33:12.675Z,12.32
2017-09-22T02:35:40.151Z,12.32
2017-09-22T02:38:07.626Z,12.30
2017-09-22T02:40:35.092Z,12.29
2017-09-22T02:43:02.956Z,12.28
2017-09-22T02:45:30.427Z,12.24
2017-09-22T02:47:57.891Z,12.19
2017-09-22T02:50:25.362Z,12.15
2017-09-22T02:52:52.826Z,12.12
2017-09-22T02:55:20.295Z,12.07
2017-09-22T02:57:47.761Z,12.06
2017-09-22T03:00:15.563Z,12.05
2017-09-22T03:02:43.031Z,12.07
2017-09-22T03:05:10.498Z,12.06
2017-09-22T03:07:37.980Z,12.08
2017-09-22T03:10:05.468Z,12.09
2017-09-22T03:12:32.935Z,12.11
2017-09-22T03:15:00.391Z,12.11
2017-09-22T03:17:28.161Z,12.10
2017-09-22T03:19:55.622Z,12.09
2017-09-22T03:22:23.077Z,12.08
2017-09-22T03:24:50.561Z,12.09
2017-09-22T03:27:18.025Z,12.10
2017-09-22T03:29:45.500Z,12.12
2017-09-22T03:32:12.966Z,12.14
2017-09-22T03:34:40.718Z,12.16
2017-09-22T03:37:08.184Z,12.17
2017-09-22T03:39:35.655Z,12.16
2017-09-22T03:42:03.134Z,12.16
2017-09-22T03:44:30.619Z,12.17
2017-09-22T03:46:58.116Z,12.15
2017-09-22T03:49:25.580Z,12.16
2017-09-22T03:51:53.054Z,12.17
2017-09-22T03:54:20.512Z,12.17
2017-09-22T03:56:48.321Z,12.17
2017-09-22T03:59:15.784Z,12.16
2017-09-22T04:01:43.244Z,12.15
2017-09-22T04:04:10.743Z,12.13
2017-09-22T04:06:38.217Z,12.08
2017-09-22T04:09:05.686Z,12.07
2017-09-22T04:11:33.153Z,12.06
2017-09-22T04:14:00.643Z,12.05
2017-09-22T04:16:28.115Z,12.04
2017-09-22T04:18:55.588Z,12.03
2017-09-22T04:21:23.056Z,11.97
2017-09-22T04:23:50.584Z,11.98
2017-09-22T04:26:18.058Z,11.95
2017-09-22T04:28:45.523Z,11.92
2017-09-22T04:31:12.983Z,11.89
2017-09-22T04:33:40.493Z,11.87
2017-09-22T04:36:07.957Z,11.85
2017-09-22T04:38:35.719Z,11.83
2017-09-22T04:41:03.191Z,11.83
2017-09-22T04:43:30.662Z,11.79
2017-09-22T04:45:58.134Z,11.76
2017-09-22T04:48:25.596Z,11.73
2017-09-22T04:50:53.071Z,11.71
2017-09-22T04:53:20.572Z,11.71
2017-09-22T04:55:48.060Z,11.69
2017-09-22T04:58:15.544Z,11.66
2017-09-22T05:00:43.017Z,11.64
2017-09-22T05:03:10.481Z,11.62
2017-09-22T05:05:37.982Z,11.59
2017-09-22T05:08:05.804Z,11.58
2017-09-22T05:10:33.271Z,11.56
2017-09-22T05:13:00.734Z,11.56
2017-09-22T05:15:28.210Z,11.57
2017-09-22T05:17:55.666Z,11.59
2017-09-22T05:20:23.155Z,11.58
2017-09-22T05:22:50.636Z,11.57
2017-09-22T05:25:18.111Z,11.59
2017-09-22T05:27:45.568Z,11.60
2017-09-22T05:30:13.408Z,11.60
2017-09-22T05:32:40.879Z,11.60
2017-09-22T05:35:08.373Z,11.61
2017-09-22T05:37:35.856Z,11.62
2017-09-22T05:40:03.317Z,11.62
2017-09-22T05:42:30.827Z,11.62
2017-09-22T05:44:58.282Z,11.62
2017-09-22T05:47:26.123Z,11.63
2017-09-22T05:49:53.595Z,11.63
2017-09-22T05:52:21.127Z,11.63
2017-09-22T05:54:48.616Z,11.64
2017-09-22T05:57:16.075Z,11.62
2017-09-22T05:59:43.964Z,11.64
2017-09-22T06:02:11.431Z,11.63
2017-09-22T06:04:38.896Z,11.63
2017-09-22T06:07:06.382Z,11.64
2017-09-22T06:09:33.859Z,11.64
2017-09-22T06:12:01.345Z,11.63
2017-09-22T06:14:28.791Z,11.64
2017-09-22T06:16:56.287Z,11.66
2017-09-22T06:19:23.735Z,11.67
2017-09-22T06:21:51.228Z,11.68
2017-09-22T06:24:18.724Z,11.71
2017-09-22T06:26:46.228Z,11.75
2017-09-22T06:29:13.776Z,11.77
2017-09-22T06:31:41.248Z,11.80
2017-09-22T06:34:08.732Z,11.83
2017-09-22T06:36:36.214Z,11.87
2017-09-22T06:39:03.691Z,11.88
2017-09-22T06:41:31.552Z,11.92
2017-09-22T06:43:59.029Z,11.98
2017-09-22T06:46:26.507Z,11.98
2017-09-22T06:48:53.988Z,12.01
2017-09-22T06:51:21.448Z,12.05
2017-09-22T06:53:48.950Z,12.09
2017-09-22T06:56:16.422Z,12.14
2017-09-22T06:58:44.279Z,12.18
2017-09-22T07:01:11.746Z,12.22
2017-09-22T07:03:39.228Z,12.25
2017-09-22T07:06:06.728Z,12.29
2017-09-22T07:08:34.187Z,12.35
2017-09-22T07:11:01.660Z,12.38
2017-09-22T07:13:29.143Z,12.44
2017-09-22T07:15:56.668Z,12.51
2017-09-22T07:18:24.177Z,12.52
2017-09-22T07:20:51.929Z,12.53
2017-09-22T07:23:19.386Z,12.55
2017-09-22T07:25:46.890Z,12.60
2017-09-22T07:28:14.372Z,12.65
2017-09-22T07:30:41.856Z,12.68
2017-09-22T07:33:09.362Z,12.72
2017-09-22T07:35:37.079Z,12.76
2017-09-22T07:38:08.845Z,12.82
2017-09-22T07:40:36.350Z,12.88
2017-09-22T07:43:04.174Z,12.94
2017-09-22T07:45:31.671Z,12.97
2017-09-22T07:47:59.143Z,13.04
2017-09-22T07:50:26.620Z,13.13
2017-09-22T07:52:54.406Z,13.19
2017-09-22T07:55:22.208Z,13.25
2017-09-22T07:57:49.688Z,13.28
2017-09-22T08:00:17.163Z,13.33
2017-09-22T08:02:44.639Z,13.39
2017-09-22T08:05:12.108Z,13.46
2017-09-22T08:07:39.582Z,13.58
2017-09-22T08:10:07.081Z,13.58
2017-09-22T08:12:34.953Z,13.62
2017-09-22T08:15:02.424Z,13.67
2017-09-22T08:17:29.898Z,13.75
2017-09-22T08:19:57.430Z,13.85
2017-09-22T08:22:24.947Z,13.94
2017-09-22T08:24:52.433Z,13.98
2017-09-22T08:27:19.907Z,14.09
2017-09-22T08:29:47.409Z,14.12
2017-09-22T08:32:14.898Z,14.13
2017-09-22T08:34:42.737Z,14.21
2017-09-22T08:37:10.227Z,14.29
2017-09-22T08:39:37.714Z,14.37
2017-09-22T08:42:05.244Z,14.47
2017-09-22T08:44:32.716Z,14.51
2017-09-22T08:47:00.213Z,14.57
2017-09-22T08:49:27.726Z,14.63
2017-09-22T08:51:55.558Z,14.69
2017-09-22T08:54:23.069Z,14.79
2017-09-22T08:56:50.537Z,14.79
2017-09-22T08:59:18.014Z,14.84
2017-09-22T09:01:46.379Z,14.89
2017-09-22T09:04:13.866Z,14.95
2017-09-22T09:06:41.364Z,15.03
2017-09-22T09:09:09.117Z,15.11
2017-09-22T09:11:36.614Z,15.18
2017-09-22T09:14:04.087Z,15.26
2017-09-22T09:16:31.586Z,15.34
2017-09-22T09:18:59.104Z,15.43
2017-09-22T09:21:26.595Z,15.54
2017-09-22T09:23:54.085Z,15.57
2017-09-22T09:26:21.992Z,15.65
2017-09-22T09:28:49.498Z,15.68
2017-09-22T09:31:17.007Z,15.74
2017-09-22T09:33:44.520Z,15.82
2017-09-22T09:36:12.022Z,15.96
2017-09-22T09:38:39.892Z,16.10
2017-09-22T09:41:07.398Z,16.18
2017-09-22T09:43:34.867Z,16.27
2017-09-22T09:46:02.355Z,16.34
2017-09-22T09:48:29.827Z,16.46
2017-09-22T09:50:58.044Z,16.47
2017-09-22T09:53:25.514Z,16.57
2017-09-22T09:55:53.335Z,16.69
2017-09-22T09:58:20.804Z,16.83
2017-09-22T10:00:48.294Z,16.93
2017-09-22T10:03:15.838Z,16.96
2017-09-22T10:05:43.325Z,17.07
2017-09-22T10:08:10.819Z,17.17
2017-09-22T10:10:38.319Z,17.28
2017-09-22T10:13:05.906Z,17.39
2017-09-22T10:15:33.397Z,17.49
2017-09-22T10:18:01.245Z,17.61
2017-09-22T10:20:28.758Z,17.74
2017-09-22T10:22:56.580Z,17.81
2017-09-22T10:25:24.086Z,17.80
2017-09-22T10:27:51.574Z,17.93
2017-09-22T10:30:19.102Z,18.23
2017-09-22T10:32:46.588Z,18.54
2017-09-22T10:35:14.065Z,18.91
2017-09-22T10:37:41.657Z,19.13
2017-09-22T10:40:09.419Z,19.65
2017-09-22T10:42:36.896Z,20.19
2017-09-22T10:45:04.422Z,20.72
2017-09-22T10:47:31.893Z,21.15
2017-09-22T10:49:59.345Z,21.50
2017-09-22T10:52:27.196Z,21.86
2017-09-22T10:54:54.673Z,22.10
2017-09-22T10:57:22.152Z,22.46
2017-09-22T10:59:49.655Z,22.53
2017-09-22T11:02:17.155Z,22.77
2017-09-22T11:04:44.622Z,22.93
2017-09-22T11:07:12.078Z,22.98
2017-09-22T11:09:39.925Z,23.17
2017-09-22T11:12:07.408Z,23.32
2017-09-22T11:14:34.871Z,23.51
2017-09-22T11:17:02.382Z,23.85
2017-09-22T11:19:29.872Z,23.95
2017-09-22T11:21:57.352Z,24.23
2017-09-22T11:24:24.842Z,24.76
2017-09-22T11:26:52.330Z,25.25
2017-09-22T11:29:20.099Z,25.73
2017-09-22T11:31:47.061Z,26.04
2017-09-22T11:34:13.957Z,26.31
2017-09-22T11:36:41.461Z,26.18
2017-09-22T11:39:08.950Z,26.00
2017-09-22T11:41:36.745Z,25.58
2017-09-22T11:44:04.204Z,25.32
2017-09-22T11:46:31.690Z,25.08
2017-09-22T11:48:59.184Z,24.78
2017-09-22T11:51:26.695Z,24.70
2017-09-22T11:53:54.172Z,24.17
2017-09-22T11:56:21.642Z,23.79
2017-09-22T11:58:49.404Z,23.32
2017-09-22T12:01:16.862Z,23.12
2017-09-22T12:03:44.413Z,22.97
2017-09-22T12:06:11.927Z,22.99
2017-09-22T12:08:39.428Z,23.01
2017-09-22T12:11:07.259Z,22.72
2017-09-22T12:13:34.720Z,22.36
2017-09-22T12:16:02.230Z,21.61
2017-09-22T12:18:29.718Z,21.36
2017-09-22T12:20:57.206Z,21.27
2017-09-22T12:23:24.684Z,21.09
2017-09-22T12:25:52.204Z,21.19
2017-09-22T12:28:20.083Z,21.06
2017-09-22T12:30:47.574Z,21.11
2017-09-22T12:33:15.089Z,21.38
2017-09-22T12:35:42.645Z,21.62
2017-09-22T12:38:10.147Z,22.08
2017-09-22T12:40:37.638Z,22.12
2017-09-22T12:43:05.100Z,22.54
2017-09-22T12:45:32.570Z,22.84
2017-09-22T12:48:00.038Z,23.03
2017-09-22T12:50:27.535Z,23.31
2017-09-22T12:52:55.366Z,23.72
2017-09-22T12:55:23.104Z,24.23
2017-09-22T12:57:50.582Z,24.48
2017-09-22T13:00:18.053Z,24.61
2017-09-22T13:02:45.536Z,24.84
2017-09-22T13:05:13.010Z,25.22
2017-09-22T13:07:40.491Z,25.59
2017-09-22T13:10:07.970Z,25.79
2017-09-22T13:12:35.771Z,26.11
2017-09-22T13:15:03.262Z,26.31
2017-09-22T13:17:30.736Z,26.54
2017-09-22T13:19:58.250Z,26.73
2017-09-22T13:22:25.763Z,26.62
2017-09-22T13:24:53.251Z,26.88
2017-09-22T13:27:20.751Z,26.87
2017-09-22T13:29:48.554Z,26.75
2017-09-22T13:32:16.026Z,26.76
2017-09-22T13:34:43.498Z,26.37
2017-09-22T13:37:11.008Z,25.88
2017-09-22T13:39:38.493Z,25.54
2017-09-22T13:42:05.981Z,25.18
2017-09-22T13:44:33.454Z,24.66
2017-09-22T13:47:01.263Z,24.27
2017-09-22T13:49:28.730Z,23.88
2017-09-22T13:51:56.194Z,23.49
2017-09-22T13:54:24.045Z,23.17
2017-09-22T13:56:51.504Z,22.92
2017-09-22T13:59:18.961Z,22.69
2017-09-22T14:01:46.478Z,22.46
2017-09-22T14:04:14.022Z,22.19
2017-09-22T14:06:41.830Z,21.91
2017-09-22T14:09:09.354Z,21.73
2017-09-22T14:11:36.812Z,21.58
2017-09-22T14:14:04.302Z,21.43
2017-09-22T14:16:31.768Z,20.99
2017-09-22T14:18:59.269Z,20.92
2017-09-22T14:21:26.743Z,20.65
2017-09-22T14:23:54.567Z,20.48
2017-09-22T14:26:22.055Z,20.29
2017-09-22T14:28:49.545Z,20.32
2017-09-22T14:31:17.043Z,20.20
2017-09-22T14:33:44.548Z,20.25
2017-09-22T14:36:12.025Z,20.11
2017-09-22T14:38:39.520Z,19.88
2017-09-22T14:41:07.348Z,19.84
2017-09-22T14:43:34.867Z,19.87
2017-09-22T14:46:02.356Z,19.81
2017-09-22T14:48:29.852Z,19.76
2017-09-22T14:50:57.330Z,19.83
2017-09-22T14:53:24.845Z,19.79
2017-09-22T14:55:52.329Z,19.76
2017-09-22T14:58:20.163Z,19.66
2017-09-22T15:00:47.663Z,19.61
2017-09-22T15:03:15.135Z,19.64
2017-09-22T15:05:42.636Z,19.65
2017-09-22T15:08:10.100Z,19.70
2017-09-22T15:10:37.580Z,19.63
2017-09-22T15:13:05.031Z,19.67
2017-09-22T15:15:32.518Z,19.63
2017-09-22T15:17:59.984Z,19.66
2017-09-22T15:20:27.800Z,19.58
2017-09-22T15:22:55.418Z,19.50
2017-09-22T15:25:22.905Z,19.45
2017-09-22T15:27:50.396Z,19.44
2017-09-22T15:30:17.878Z,19.41
2017-09-22T15:32:45.352Z,19.40
2017-09-22T15:35:12.819Z,19.49
2017-09-22T15:37:40.305Z,19.50
2017-09-22T15:40:07.779Z,19.50
2017-09-22T15:42:35.635Z,19.46
2017-09-22T15:45:03.109Z,19.39
2017-09-22T15:47:30.597Z,19.42
2017-09-22T15:49:58.071Z,19.36
2017-09-22T15:52:25.535Z,19.36
2017-09-22T15:54:53.025Z,19.37
2017-09-22T15:57:20.488Z,19.33
2017-09-22T15:59:48.340Z,19.32
2017-09-22T16:02:15.814Z,19.37
2017-09-22T16:04:43.376Z,19.33
2017-09-22T16:07:10.855Z,19.26
2017-09-22T16:09:38.320Z,19.22
2017-09-22T16:12:05.825Z,19.24
2017-09-22T16:14:33.296Z,19.19
2017-09-22T16:17:00.778Z,19.17
2017-09-22T16:19:28.255Z,19.15
2017-09-22T16:21:56.000Z,19.11
2017-09-22T16:24:23.464Z,19.09
2017-09-22T16:26:50.920Z,19.09
2017-09-22T16:29:18.391Z,19.07
2017-09-22T16:31:45.845Z,19.06
2017-09-22T16:34:13.307Z,19.04
2017-09-22T16:36:40.789Z,19.04
2017-09-22T16:39:08.247Z,19.02
2017-09-22T16:41:35.741Z,19.02
2017-09-22T16:44:03.224Z,19.03
2017-09-22T16:46:30.729Z,19.03
2017-09-22T16:48:58.228Z,19.02
2017-09-22T16:51:25.707Z,19.01
2017-09-22T16:53:53.173Z,18.99
2017-09-22T16:56:20.994Z,18.97
2017-09-22T16:58:48.469Z,18.95
2017-09-22T17:01:15.939Z,18.92
2017-09-22T17:03:43.407Z,18.91
2017-09-22T17:06:10.869Z,18.87
2017-09-22T17:08:38.351Z,18.83
2017-09-22T17:11:05.806Z,18.78
2017-09-22T17:13:33.323Z,18.73
2017-09-22T17:16:00.789Z,18.67
2017-09-22T17:18:28.520Z,18.57
2017-09-22T17:20:55.989Z,18.50
2017-09-22T17:23:23.455Z,18.40
2017-09-22T17:25:50.930Z,18.37
2017-09-22T17:28:18.385Z,18.37
2017-09-22T17:30:45.868Z,18.29
2017-09-22T17:33:13.324Z,18.17
2017-09-22T17:35:40.794Z,18.19
2017-09-22T17:38:08.271Z,18.06
2017-09-22T17:40:36.141Z,17.97
2017-09-22T17:43:03.602Z,17.91
2017-09-22T17:45:31.079Z,17.77
2017-09-22T17:47:58.569Z,17.75
2017-09-22T17:50:26.028Z,17.60
2017-09-22T17:52:53.576Z,17.55
2017-09-22T17:55:21.075Z,17.46
2017-09-22T17:57:48.930Z,17.39
2017-09-22T18:00:16.405Z,17.40
2017-09-22T18:02:43.867Z,17.39
2017-09-22T18:05:11.360Z,17.33
2017-09-22T18:07:38.828Z,17.22
2017-09-22T18:10:06.317Z,17.24
2017-09-22T18:12:33.792Z,17.24
2017-09-22T18:15:01.634Z,17.25
2017-09-22T18:17:29.114Z,17.20
2017-09-22T18:19:56.586Z,17.17
2017-09-22T18:22:24.077Z,17.12
2017-09-22T18:24:51.558Z,17.08
2017-09-22T18:27:19.096Z,17.05
2017-09-22T18:29:46.578Z,17.07
2017-09-22T18:32:14.078Z,17.08
2017-09-22T18:34:41.551Z,17.10
2017-09-22T18:37:09.298Z,17.12
2017-09-22T18:39:36.782Z,17.11
2017-09-22T18:42:04.251Z,17.04
2017-09-22T18:44:31.725Z,17.04
2017-09-22T18:46:59.177Z,17.01
2017-09-22T18:49:26.660Z,17.05
2017-09-22T18:51:54.131Z,17.04
2017-09-22T18:54:21.611Z,17.02
2017-09-22T18:56:49.087Z,16.98
2017-09-22T18:59:16.890Z,16.93
2017-09-22T19:01:44.377Z,16.91
2017-09-22T19:04:11.864Z,16.89
2017-09-22T19:06:39.364Z,16.92
2017-09-22T19:09:06.829Z,16.90
2017-09-22T19:11:34.595Z,16.85
2017-09-22T19:14:02.071Z,16.77
2017-09-22T19:16:29.545Z,16.72
2017-09-22T19:18:57.025Z,16.74
2017-09-22T19:21:24.484Z,16.78
2017-09-22T19:23:51.977Z,16.75
2017-09-22T19:26:19.451Z,16.71
2017-09-22T19:28:47.309Z,16.66
2017-09-22T19:31:14.779Z,16.64
2017-09-22T19:33:42.245Z,16.58
2017-09-22T19:36:09.714Z,16.53
2017-09-22T19:38:37.172Z,16.52
2017-09-22T19:41:04.951Z,16.49
2017-09-22T19:43:32.426Z,16.46
2017-09-22T19:45:59.884Z,16.43
2017-09-22T19:48:27.428Z,16.41
2017-09-22T19:50:54.889Z,16.38
2017-09-22T19:53:22.695Z,16.43
2017-09-22T19:55:50.157Z,16.58
2017-09-22T19:58:17.610Z,16.54
2017-09-22T20:00:45.083Z,16.52
2017-09-22T20:03:12.557Z,16.54
2017-09-22T20:05:40.079Z,16.50
2017-09-22T20:08:07.548Z,16.46
2017-09-22T20:10:35.110Z,16.43
2017-09-22T20:13:02.570Z,16.37
2017-09-22T20:15:30.319Z,16.35
2017-09-22T20:17:57.841Z,16.30
2017-09-22T20:20:25.303Z,16.25
2017-09-22T20:22:52.789Z,16.27
2017-09-22T20:25:20.255Z,16.35
2017-09-22T20:27:47.759Z,16.30
2017-09-22T20:30:15.232Z,16.26
2017-09-22T20:32:43.045Z,16.24
2017-09-22T20:35:10.515Z,16.23
2017-09-22T20:37:37.978Z,16.23
2017-09-22T20:40:05.478Z,16.21
2017-09-22T20:42:32.931Z,16.13
2017-09-22T20:45:00.719Z,16.09
2017-09-22T20:47:28.178Z,16.18
2017-09-22T20:49:55.655Z,16.21
2017-09-22T20:52:23.168Z,16.14
2017-09-22T20:54:50.625Z,16.14
2017-09-22T20:57:18.100Z,16.13
2017-09-22T20:59:45.573Z,16.10
2017-09-22T21:02:13.323Z,16.07
2017-09-22T21:04:40.818Z,16.10
2017-09-22T21:07:08.291Z,16.06
2017-09-22T21:09:35.765Z,16.08
2017-09-22T21:12:03.232Z,16.12
2017-09-22T21:14:30.722Z,16.12
2017-09-22T21:16:58.178Z,16.15
2017-09-22T21:19:25.934Z,16.11
2017-09-22T21:21:53.430Z,16.06
2017-09-22T21:24:20.899Z,16.07
2017-09-22T21:26:48.372Z,16.19
2017-09-22T21:29:15.852Z,16.08
2017-09-22T21:31:43.999Z,16.05
2017-09-22T21:34:11.458Z,16.08
2017-09-22T21:36:42.973Z,16.14
2017-09-22T21:39:10.439Z,16.11
2017-09-22T21:41:37.953Z,16.07
2017-09-22T21:44:05.431Z,16.06
2017-09-22T21:46:32.903Z,16.03
2017-09-22T21:49:00.791Z,16.02
2017-09-22T21:51:28.256Z,15.99
2017-09-22T21:53:55.744Z,15.98
2017-09-22T21:56:23.216Z,15.96
2017-09-22T21:58:50.677Z,15.92
2017-09-22T22:01:18.173Z,15.92
2017-09-22T22:03:51.204Z,15.88
2017-09-22T22:06:24.261Z,15.84
2017-09-22T22:08:57.351Z,15.84
2017-09-22T22:11:24.834Z,15.82
2017-09-22T22:13:52.293Z,15.83
2017-09-22T22:16:19.879Z,15.82
2017-09-22T22:18:47.353Z,15.83
2017-09-22T22:21:15.218Z,15.84
2017-09-22T22:23:42.675Z,15.85
2017-09-22T22:26:10.158Z,15.80
2017-09-22T22:28:37.630Z,15.81
2017-09-22T22:31:05.091Z,15.81
2017-09-22T22:33:32.570Z,15.81
2017-09-22T22:36:00.032Z,15.79
2017-09-22T22:38:27.518Z,15.68
2017-09-22T22:40:54.986Z,15.67
2017-09-22T22:43:22.824Z,15.61
2017-09-22T22:45:50.301Z,15.61
2017-09-22T22:48:17.758Z,15.63
2017-09-22T22:50:45.229Z,15.60
2017-09-22T22:53:12.698Z,15.67
2017-09-22T22:55:40.163Z,15.62
2017-09-22T22:58:07.618Z,15.60
2017-09-22T23:00:35.492Z,15.57
2017-09-22T23:03:02.977Z,15.61
2017-09-22T23:05:30.436Z,15.60
2017-09-22T23:07:57.907Z,15.63
2017-09-22T23:10:25.377Z,15.71
2017-09-22T23:12:52.842Z,15.64
2017-09-22T23:15:20.338Z,15.70
2017-09-22T23:17:47.818Z,15.72
2017-09-22T23:20:15.286Z,15.71
2017-09-22T23:22:42.748Z,15.64
2017-09-22T23:25:10.219Z,15.73
2017-09-22T23:27:38.083Z,15.65
2017-09-22T23:30:05.551Z,15.58
2017-09-22T23:32:33.057Z,15.57
2017-09-22T23:35:00.512Z,15.58
2017-09-22T23:37:27.977Z,15.55
2017-09-22T23:39:55.441Z,15.61
2017-09-22T23:42:22.902Z,15.61
2017-09-22T23:44:50.362Z,15.59
2017-09-22T23:47:17.808Z,15.55
2017-09-22T23:49:45.560Z,15.55
2017-09-22T23:52:13.015Z,15.55
2017-09-22T23:54:40.562Z,15.48
2017-09-22T23:57:08.026Z,15.42
2017-09-22T23:59:35.477Z,15.36
